createdAt,value
2017-12-23T00:02:17.869Z,9.32
2017-12-23T00:04:44.471Z,10.20
2017-12-23T00:07:11.091Z,11.27
2017-12-23T00:09:37.635Z,10.98
2017-12-23T00:12:04.225Z,9.05
2017-12-23T00:14:30.777Z,9.63
2017-12-23T00:16:57.306Z,10.93
2017-12-23T00:19:23.998Z,10.50
2017-12-23T00:21:50.921Z,10.00
2017-12-23T00:24:17.469Z,10.60
2017-12-23T00:26:44.154Z,10.10
2017-12-23T00:29:11.070Z,9.07
2017-12-23T00:31:37.615Z,10.35
2017-12-23T00:34:04.209Z,9.65
2017-12-23T00:36:31.138Z,8.82
2017-12-23T00:38:57.697Z,11.07
2017-12-23T00:41:24.301Z,10.75
2017-12-23T00:43:50.850Z,8.10
2017-12-23T00:46:17.397Z,9.15
2017-12-23T00:48:44.035Z,8.63
2017-12-23T00:51:10.582Z,8.95
2017-12-23T00:53:37.133Z,8.90
2017-12-23T00:56:03.834Z,9.55
2017-12-23T00:58:30.385Z,10.50
2017-12-23T01:00:56.949Z,9.05
2017-12-23T01:03:23.938Z,10.60
2017-12-23T01:05:50.561Z,9.43
2017-12-23T01:08:17.485Z,10.05
2017-12-23T01:10:44.078Z,8.63
2017-12-23T01:13:10.626Z,9.65
2017-12-23T01:15:37.169Z,10.18
2017-12-23T01:18:04.150Z,10.05
2017-12-23T01:20:30.695Z,10.30
2017-12-23T01:22:57.244Z,8.30
2017-12-23T01:25:23.838Z,12.57
2017-12-23T01:27:50.389Z,10.02
2017-12-23T01:30:17.022Z,10.60
2017-12-23T01:32:43.672Z,10.25
2017-12-23T01:35:10.423Z,9.88
2017-12-23T01:37:36.961Z,9.02
2017-12-23T01:40:03.587Z,10.85
2017-12-23T01:42:30.130Z,11.12
2017-12-23T01:44:56.669Z,11.10
2017-12-23T01:47:23.294Z,10.73
2017-12-23T01:49:49.914Z,9.15
2017-12-23T01:52:16.543Z,12.77
2017-12-23T01:54:43.145Z,11.07
2017-12-23T01:57:10.074Z,10.48
2017-12-23T01:59:36.618Z,10.07
2017-12-23T02:02:03.419Z,12.00
2017-12-23T02:04:30.334Z,11.43
2017-12-23T02:06:57.158Z,11.32
2017-12-23T02:09:23.762Z,10.70
2017-12-23T02:11:50.689Z,11.05
2017-12-23T02:14:17.258Z,11.25
2017-12-23T02:16:43.874Z,12.05
2017-12-23T02:19:10.458Z,10.60
2017-12-23T02:21:37.012Z,11.55
2017-12-23T02:24:04.078Z,10.25
2017-12-23T02:26:30.995Z,9.60
2017-12-23T02:28:57.542Z,11.15
2017-12-23T02:31:24.255Z,10.32
2017-12-23T02:33:50.803Z,10.88
2017-12-23T02:36:17.359Z,10.48
2017-12-23T02:38:43.970Z,11.40
2017-12-23T02:41:10.894Z,10.95
2017-12-23T02:43:37.434Z,10.98
2017-12-23T02:46:04.034Z,10.32
2017-12-23T02:48:30.973Z,11.07
2017-12-23T02:50:57.899Z,11.52
2017-12-23T02:53:24.516Z,11.98
2017-12-23T02:55:51.074Z,11.10
2017-12-23T02:58:17.747Z,11.88
2017-12-23T03:00:44.458Z,12.20
2017-12-23T03:03:11.003Z,11.88
2017-12-23T03:05:37.549Z,12.10
2017-12-23T03:08:04.232Z,12.50
2017-12-23T03:10:30.773Z,12.63
2017-12-23T03:12:57.314Z,12.95
2017-12-23T03:15:23.924Z,12.23
2017-12-23T03:17:50.857Z,12.65
2017-12-23T03:20:17.515Z,13.10
2017-12-23T03:22:44.116Z,12.85
2017-12-23T03:25:10.654Z,13.90
2017-12-23T03:27:37.193Z,13.90
2017-12-23T03:30:03.827Z,13.50
2017-12-23T03:32:30.398Z,12.45
2017-12-23T03:34:56.942Z,12.48
2017-12-23T03:37:23.544Z,13.82
2017-12-23T03:39:50.086Z,14.50
2017-12-23T03:42:16.627Z,13.95
2017-12-23T03:44:43.226Z,13.45
2017-12-23T03:47:09.766Z,15.38
2017-12-23T03:49:36.309Z,13.50
2017-12-23T03:52:02.918Z,14.50
2017-12-23T03:54:29.467Z,13.88
2017-12-23T03:56:56.018Z,14.10
2017-12-23T03:59:22.602Z,14.48
2017-12-23T04:01:49.154Z,14.20
2017-12-23T04:04:15.695Z,13.75
2017-12-23T04:06:42.422Z,14.32
2017-12-23T04:09:09.374Z,14.68
2017-12-23T04:11:35.961Z,15.15
2017-12-23T04:14:02.547Z,14.55
2017-12-23T04:16:29.154Z,14.30
2017-12-23T04:18:55.701Z,13.98
2017-12-23T04:21:22.307Z,15.10
2017-12-23T04:23:48.857Z,13.25
2017-12-23T04:26:15.769Z,13.93
2017-12-23T04:28:42.441Z,13.98
2017-12-23T04:31:08.974Z,13.35
2017-12-23T04:33:35.504Z,13.43
2017-12-23T04:36:02.165Z,16.80
2017-12-23T04:38:28.697Z,15.55
2017-12-23T04:40:55.238Z,15.20
2017-12-23T04:43:21.851Z,14.90
2017-12-23T04:45:48.761Z,16.27
2017-12-23T04:48:15.302Z,16.55
2017-12-23T04:50:42.211Z,16.70
2017-12-23T04:53:09.219Z,15.38
2017-12-23T04:55:35.775Z,16.42
2017-12-23T04:58:02.357Z,15.88
2017-12-23T05:00:29.343Z,16.73
2017-12-23T05:02:55.881Z,16.73
2017-12-23T05:05:22.517Z,14.90
2017-12-23T05:07:49.525Z,16.02
2017-12-23T05:10:16.110Z,15.90
2017-12-23T05:12:43.078Z,17.37
2017-12-23T05:15:09.998Z,17.00
2017-12-23T05:17:36.553Z,15.48
2017-12-23T05:20:03.158Z,15.20
2017-12-23T05:22:29.713Z,15.55
2017-12-23T05:24:56.258Z,14.07
2017-12-23T05:27:22.857Z,16.25
2017-12-23T05:29:49.762Z,16.00
2017-12-23T05:32:16.310Z,15.88
2017-12-23T05:34:42.914Z,15.35
2017-12-23T05:37:09.826Z,14.95
2017-12-23T05:39:36.381Z,16.25
2017-12-23T05:42:02.977Z,14.90
2017-12-23T05:44:29.525Z,14.90
2017-12-23T05:46:56.062Z,15.88
2017-12-23T05:49:30.078Z,15.00
2017-12-23T05:51:56.641Z,15.05
2017-12-23T05:54:23.174Z,15.63
2017-12-23T05:56:50.169Z,16.17
2017-12-23T05:59:16.735Z,16.30
2017-12-23T06:01:43.279Z,15.93
2017-12-23T06:04:09.963Z,15.20
2017-12-23T06:06:36.878Z,16.35
2017-12-23T06:09:03.558Z,13.82
2017-12-23T06:11:30.163Z,14.85
2017-12-23T06:13:56.833Z,14.82
2017-12-23T06:16:23.482Z,15.07
2017-12-23T06:18:50.078Z,15.00
2017-12-23T06:21:16.679Z,13.55
2017-12-23T06:23:43.330Z,14.07
2017-12-23T06:26:10.080Z,14.93
2017-12-23T06:28:36.634Z,13.68
2017-12-23T06:31:03.173Z,14.77
2017-12-23T06:33:29.770Z,15.32
2017-12-23T06:35:56.699Z,14.90
2017-12-23T06:38:23.302Z,15.00
2017-12-23T06:40:49.916Z,15.95
2017-12-23T06:43:16.834Z,13.90
2017-12-23T06:45:43.383Z,15.40
2017-12-23T06:48:10.018Z,15.07
2017-12-23T06:50:36.562Z,14.95
2017-12-23T06:53:03.106Z,13.18
2017-12-23T06:55:29.923Z,12.75
2017-12-23T06:57:56.906Z,12.70
2017-12-23T07:00:23.480Z,14.20
2017-12-23T07:02:50.082Z,13.00
2017-12-23T07:05:16.629Z,14.40
2017-12-23T07:07:43.222Z,14.10
2017-12-23T07:10:09.972Z,13.90
2017-12-23T07:12:36.525Z,13.13
2017-12-23T07:15:03.119Z,13.38
2017-12-23T07:17:29.979Z,14.10
2017-12-23T07:19:56.525Z,13.38
2017-12-23T07:22:23.078Z,14.70
2017-12-23T07:24:49.815Z,14.73
2017-12-23T07:27:16.746Z,12.82
2017-12-23T07:29:43.294Z,12.70
2017-12-23T07:32:09.998Z,15.07
2017-12-23T07:34:36.671Z,13.43
2017-12-23T07:37:03.229Z,12.95
2017-12-23T07:39:29.846Z,13.13
2017-12-23T07:41:56.437Z,11.55
2017-12-23T07:44:22.977Z,14.30
2017-12-23T07:46:49.582Z,12.85
2017-12-23T07:49:16.158Z,18.30
2017-12-23T07:51:42.809Z,16.23
2017-12-23T07:54:09.408Z,16.10
2017-12-23T07:56:35.964Z,13.18
2017-12-23T07:59:02.530Z,14.07
2017-12-23T08:01:29.133Z,15.13
2017-12-23T08:03:55.683Z,13.75
2017-12-23T08:06:22.615Z,13.93
2017-12-23T08:08:49.234Z,13.27
2017-12-23T08:11:15.833Z,13.45
2017-12-23T08:13:42.756Z,13.38
2017-12-23T08:16:09.403Z,12.85
2017-12-23T08:18:35.947Z,14.10
2017-12-23T08:21:02.478Z,13.27
2017-12-23T08:23:29.122Z,14.68
2017-12-23T08:25:55.674Z,13.80
2017-12-23T08:28:22.215Z,15.18
2017-12-23T08:30:48.814Z,14.85
2017-12-23T08:33:15.366Z,13.88
2017-12-23T08:35:41.973Z,13.85
2017-12-23T08:38:08.566Z,13.77
2017-12-23T08:40:35.203Z,14.13
2017-12-23T08:43:01.782Z,14.93
2017-12-23T08:45:28.784Z,14.80
2017-12-23T08:47:55.334Z,15.63
2017-12-23T08:50:21.879Z,15.15
2017-12-23T08:52:48.497Z,13.60
2017-12-23T08:55:15.046Z,13.62
2017-12-23T08:57:41.581Z,14.90
2017-12-23T09:00:08.276Z,12.95
2017-12-23T09:02:34.924Z,13.65
2017-12-23T09:05:01.577Z,14.57
2017-12-23T09:07:28.329Z,14.05
2017-12-23T09:09:54.956Z,12.02
2017-12-23T09:12:21.631Z,14.45
2017-12-23T09:14:48.354Z,14.52
2017-12-23T09:17:14.898Z,13.23
2017-12-23T09:19:41.448Z,12.68
2017-12-23T09:22:08.138Z,11.70
2017-12-23T09:24:34.686Z,11.35
2017-12-23T09:27:01.308Z,11.95
2017-12-23T09:29:27.973Z,12.90
2017-12-23T09:31:54.619Z,11.63
2017-12-23T09:34:21.198Z,12.52
2017-12-23T09:36:47.893Z,12.50
2017-12-23T09:39:14.475Z,13.20
2017-12-23T09:41:41.031Z,11.98
2017-12-23T09:44:07.650Z,12.07
2017-12-23T09:46:34.194Z,11.63
2017-12-23T09:49:00.738Z,12.50
2017-12-23T09:51:27.432Z,13.00
2017-12-23T09:53:53.982Z,11.95
2017-12-23T09:56:20.538Z,12.20
2017-12-23T09:58:47.146Z,11.43
2017-12-23T10:01:13.714Z,11.68
2017-12-23T10:03:40.479Z,11.55
2017-12-23T10:06:07.629Z,12.80
2017-12-23T10:08:34.186Z,13.20
2017-12-23T10:11:00.726Z,11.43
2017-12-23T10:13:27.361Z,10.52
2017-12-23T10:15:54.819Z,11.68
2017-12-23T10:18:21.362Z,11.90
2017-12-23T10:20:47.994Z,13.07
2017-12-23T10:23:14.538Z,23.08
2017-12-23T10:25:41.086Z,16.50
2017-12-23T10:28:07.682Z,13.10
2017-12-23T10:30:34.238Z,16.67
2017-12-23T10:33:00.787Z,18.08
2017-12-23T10:35:27.762Z,19.98
2017-12-23T10:37:54.327Z,13.70
2017-12-23T10:40:20.941Z,12.05
2017-12-23T10:42:47.629Z,11.15
2017-12-23T10:45:14.174Z,11.45
2017-12-23T10:47:40.750Z,11.93
2017-12-23T10:50:07.355Z,12.30
2017-12-23T10:52:33.905Z,11.60
2017-12-23T10:55:00.509Z,13.40
2017-12-23T10:57:27.171Z,11.07
2017-12-23T10:59:53.710Z,10.75
2017-12-23T11:02:20.254Z,11.05
2017-12-23T11:04:47.266Z,11.82
2017-12-23T11:07:13.841Z,11.30
2017-12-23T11:09:40.785Z,9.98
2017-12-23T11:12:07.442Z,10.32
2017-12-23T11:14:33.997Z,9.32
2017-12-23T11:17:00.571Z,9.02
2017-12-23T11:19:27.178Z,8.80
2017-12-23T11:21:53.757Z,8.38
2017-12-23T11:24:20.736Z,8.30
2017-12-23T11:26:47.734Z,7.60
2017-12-23T11:29:14.279Z,7.35
2017-12-23T11:31:40.849Z,5.70
2017-12-23T11:34:10.314Z,6.25
2017-12-23T11:36:37.199Z,7.62
2017-12-23T11:39:03.826Z,8.40
2017-12-23T11:41:30.418Z,7.85
2017-12-23T11:43:57.000Z,6.93
2017-12-23T11:46:23.910Z,8.02
2017-12-23T11:48:50.516Z,7.72
2017-12-23T11:51:17.527Z,7.43
2017-12-23T11:53:44.080Z,7.47
2017-12-23T11:56:10.699Z,6.85
2017-12-23T11:58:37.238Z,7.43
2017-12-23T12:01:03.787Z,7.18
2017-12-23T12:03:30.538Z,7.75
2017-12-23T12:05:57.098Z,7.45
2017-12-23T12:08:23.763Z,9.68
2017-12-23T12:10:50.362Z,15.63
2017-12-23T12:13:17.344Z,6.62
2017-12-23T12:15:43.916Z,7.00
2017-12-23T12:18:10.630Z,6.30
2017-12-23T12:20:37.187Z,6.50
2017-12-23T12:23:03.742Z,7.57
2017-12-23T12:25:30.519Z,7.20
2017-12-23T12:27:57.117Z,6.78
2017-12-23T12:30:23.670Z,6.53
2017-12-23T12:32:50.647Z,5.93
2017-12-23T12:35:17.202Z,6.12
2017-12-23T12:37:43.756Z,8.35
2017-12-23T12:40:10.616Z,6.97
2017-12-23T12:42:37.170Z,6.65
2017-12-23T12:45:03.913Z,6.40
2017-12-23T12:47:30.530Z,5.70
2017-12-23T12:49:57.082Z,5.30
2017-12-23T12:52:23.641Z,5.62
2017-12-23T12:54:50.250Z,9.15
2017-12-23T12:57:17.177Z,7.05
2017-12-23T12:59:43.748Z,5.12
2017-12-23T13:02:10.945Z,6.20
2017-12-23T13:04:37.590Z,7.03
2017-12-23T13:07:04.146Z,6.75
2017-12-23T13:09:30.773Z,5.87
2017-12-23T13:11:57.337Z,5.93
2017-12-23T13:14:23.877Z,7.53
2017-12-23T13:16:50.529Z,5.95
2017-12-23T13:19:17.107Z,6.50
2017-12-23T13:21:43.755Z,6.05
2017-12-23T13:24:10.414Z,4.45
2017-12-23T13:26:37.053Z,4.75
2017-12-23T13:29:03.702Z,5.07
2017-12-23T13:31:30.556Z,4.90
2017-12-23T13:33:57.216Z,4.20
2017-12-23T13:36:23.855Z,4.82
2017-12-23T13:38:50.458Z,6.35
2017-12-23T13:41:17.022Z,6.15
2017-12-23T13:43:43.558Z,12.65
2017-12-23T13:46:10.249Z,10.95
2017-12-23T13:48:36.870Z,8.55
2017-12-23T13:51:03.410Z,24.80
2017-12-23T13:53:30.065Z,10.23
2017-12-23T13:55:56.751Z,8.40
2017-12-23T13:58:23.365Z,6.57
2017-12-23T14:00:50.042Z,8.00
2017-12-23T14:03:16.614Z,7.07
2017-12-23T14:05:43.171Z,8.48
2017-12-23T14:08:10.141Z,5.60
2017-12-23T14:10:37.054Z,5.87
2017-12-23T14:13:03.659Z,10.15
2017-12-23T14:15:30.392Z,7.05
2017-12-23T14:17:57.302Z,16.45
2017-12-23T14:20:23.843Z,15.25
2017-12-23T14:22:50.446Z,7.50
2017-12-23T14:25:17.371Z,5.55
2017-12-23T14:27:43.923Z,4.37
2017-12-23T14:30:10.518Z,4.12
2017-12-23T14:32:37.070Z,4.12
2017-12-23T14:35:03.615Z,4.35
2017-12-23T14:37:30.331Z,5.10
2017-12-23T14:39:57.254Z,4.82
2017-12-23T14:42:23.806Z,5.32
2017-12-23T14:44:50.548Z,4.50
2017-12-23T14:47:17.199Z,3.97
2017-12-23T14:49:43.753Z,3.95
2017-12-23T14:52:10.551Z,5.25
2017-12-23T14:54:37.107Z,4.50
2017-12-23T14:57:03.670Z,4.60
2017-12-23T14:59:30.271Z,4.50
2017-12-23T15:01:56.805Z,4.43
2017-12-23T15:04:23.367Z,4.55
2017-12-23T15:06:49.967Z,4.30
2017-12-23T15:09:16.534Z,16.60
2017-12-23T15:11:43.089Z,5.40
2017-12-23T15:14:09.878Z,4.22
2017-12-23T15:16:36.794Z,4.85
2017-12-23T15:19:03.375Z,5.60
2017-12-23T15:21:30.382Z,5.37
2017-12-23T15:23:56.938Z,4.35
2017-12-23T15:26:23.587Z,4.43
2017-12-23T15:28:50.413Z,4.70
2017-12-23T15:31:16.962Z,4.80
2017-12-23T15:33:43.537Z,4.50
2017-12-23T15:36:10.192Z,4.80
2017-12-23T15:38:36.742Z,4.55
2017-12-23T15:41:03.309Z,5.45
2017-12-23T15:43:30.087Z,4.37
2017-12-23T15:45:56.622Z,4.90
2017-12-23T15:48:23.532Z,4.68
2017-12-23T15:50:50.122Z,5.30
2017-12-23T15:53:17.093Z,5.28
2017-12-23T15:55:43.663Z,6.70
2017-12-23T15:58:10.281Z,5.50
2017-12-23T16:00:37.210Z,5.50
2017-12-23T16:03:03.761Z,4.85
2017-12-23T16:05:30.538Z,5.20
2017-12-23T16:07:57.453Z,6.25
2017-12-23T16:10:23.994Z,4.93
2017-12-23T16:12:50.687Z,5.50
2017-12-23T16:15:17.640Z,5.05
2017-12-23T16:17:44.562Z,5.87
2017-12-23T16:20:11.410Z,5.00
2017-12-23T16:22:38.056Z,4.70
2017-12-23T16:25:04.685Z,5.18
2017-12-23T16:27:31.460Z,5.00
2017-12-23T16:29:58.111Z,5.75
2017-12-23T16:32:24.652Z,5.35
2017-12-23T16:34:51.307Z,5.70
2017-12-23T16:37:17.929Z,5.60
2017-12-23T16:39:44.504Z,5.00
2017-12-23T16:42:11.093Z,4.80
2017-12-23T16:44:38.108Z,5.72
2017-12-23T16:47:04.758Z,6.53
2017-12-23T16:49:31.358Z,5.78
2017-12-23T16:51:57.894Z,5.68
2017-12-23T16:54:24.837Z,5.07
2017-12-23T16:56:51.431Z,5.53
2017-12-23T16:59:18.082Z,6.07
2017-12-23T17:01:44.656Z,5.47
2017-12-23T17:04:11.406Z,5.95
2017-12-23T17:06:38.055Z,5.62
2017-12-23T17:09:04.704Z,6.30
2017-12-23T17:11:31.306Z,6.15
2017-12-23T17:13:57.902Z,6.65
2017-12-23T17:16:24.553Z,6.65
2017-12-23T17:18:51.201Z,6.47
2017-12-23T17:21:17.852Z,6.43
2017-12-23T17:23:44.414Z,6.43
2017-12-23T17:26:11.062Z,7.80
2017-12-23T17:28:49.826Z,6.97
2017-12-23T17:31:17.019Z,7.07
2017-12-23T17:33:43.694Z,6.37
2017-12-23T17:36:10.344Z,10.25
2017-12-23T17:38:37.299Z,9.75
2017-12-23T17:41:03.949Z,8.52
2017-12-23T17:43:30.597Z,7.43
2017-12-23T17:45:57.189Z,8.07
2017-12-23T17:48:24.308Z,8.43
2017-12-23T17:50:50.930Z,8.82
2017-12-23T17:53:17.606Z,7.97
2017-12-23T17:55:44.151Z,7.78
2017-12-23T17:58:10.778Z,8.90
2017-12-23T18:00:37.593Z,7.47
2017-12-23T18:03:04.587Z,7.45
2017-12-23T18:05:31.157Z,8.68
2017-12-23T18:07:57.770Z,7.78
2017-12-23T18:10:24.324Z,7.60
2017-12-23T18:12:50.904Z,7.12
2017-12-23T18:15:17.838Z,7.20
2017-12-23T18:17:44.510Z,7.95
2017-12-23T18:20:11.129Z,8.00
2017-12-23T18:22:37.808Z,7.22
2017-12-23T18:25:04.390Z,8.35
2017-12-23T18:27:31.414Z,9.95
2017-12-23T18:29:58.237Z,9.32
2017-12-23T18:32:25.020Z,8.98
2017-12-23T18:34:51.670Z,9.02
2017-12-23T18:37:18.262Z,9.23
2017-12-23T18:39:45.279Z,10.55
2017-12-23T18:42:11.904Z,9.48
2017-12-23T18:44:38.498Z,9.18
2017-12-23T18:47:05.121Z,9.60
2017-12-23T18:49:31.747Z,8.80
2017-12-23T18:51:58.498Z,9.57
2017-12-23T18:54:25.172Z,8.20
2017-12-23T18:56:51.822Z,7.60
2017-12-23T18:59:18.474Z,10.80
2017-12-23T19:01:45.124Z,10.00
2017-12-23T19:04:11.698Z,8.63
2017-12-23T19:06:38.390Z,9.60
2017-12-23T19:09:05.067Z,8.65
2017-12-23T19:11:31.717Z,8.68
2017-12-23T19:13:58.337Z,9.27
2017-12-23T19:16:37.305Z,9.00
2017-12-23T19:19:04.059Z,7.68
2017-12-23T19:21:30.633Z,8.10
2017-12-23T19:23:57.663Z,8.52
2017-12-23T19:26:24.502Z,9.55
2017-12-23T19:28:51.047Z,9.63
2017-12-23T19:31:17.689Z,9.55
2017-12-23T19:33:44.342Z,9.70
2017-12-23T19:36:10.911Z,10.00
2017-12-23T19:38:37.459Z,8.75
2017-12-23T19:41:04.165Z,8.45
2017-12-23T19:43:30.832Z,8.85
2017-12-23T19:45:57.405Z,8.50
2017-12-23T19:48:24.034Z,8.80
2017-12-23T19:50:50.703Z,8.18
2017-12-23T19:53:17.306Z,7.90
2017-12-23T19:55:43.979Z,8.55
2017-12-23T19:58:10.632Z,8.18
2017-12-23T20:00:37.402Z,7.75
2017-12-23T20:03:04.155Z,7.87
2017-12-23T20:05:30.804Z,7.90
2017-12-23T20:07:57.454Z,6.80
2017-12-23T20:10:24.250Z,6.95
2017-12-23T20:12:51.264Z,7.60
2017-12-23T20:15:17.821Z,6.80
2017-12-23T20:17:44.538Z,6.50
2017-12-23T20:20:11.086Z,7.28
2017-12-23T20:22:37.735Z,7.45
2017-12-23T20:25:04.387Z,7.40
2017-12-23T20:27:31.979Z,6.85
2017-12-23T20:29:58.956Z,6.00
2017-12-23T20:32:26.017Z,7.25
2017-12-23T20:34:52.862Z,6.45
2017-12-23T20:37:19.746Z,6.30
2017-12-23T20:39:47.089Z,6.55
2017-12-23T20:42:13.944Z,7.05
2017-12-23T20:44:40.793Z,6.40
2017-12-23T20:47:07.858Z,6.97
2017-12-23T20:49:34.731Z,6.18
2017-12-23T20:52:02.071Z,7.35
2017-12-23T20:54:29.133Z,6.45
2017-12-23T20:56:56.007Z,6.25
2017-12-23T20:59:23.356Z,7.05
2017-12-23T21:01:50.513Z,6.90
2017-12-23T21:04:18.185Z,7.00
2017-12-23T21:06:45.149Z,7.55
2017-12-23T21:09:12.305Z,6.90
2017-12-23T21:11:39.290Z,6.07
2017-12-23T21:14:06.664Z,7.75
2017-12-23T21:16:34.609Z,7.20
2017-12-23T21:19:01.487Z,8.88
2017-12-23T21:21:28.833Z,9.30
2017-12-23T21:23:55.889Z,9.88
2017-12-23T21:26:22.771Z,10.15
2017-12-23T21:28:50.115Z,10.60
2017-12-23T21:31:17.172Z,12.15
2017-12-23T21:33:44.025Z,13.13
2017-12-23T21:36:10.980Z,13.02
2017-12-23T21:38:37.933Z,15.73
2017-12-23T21:41:04.793Z,12.55
2017-12-23T21:43:31.745Z,13.73
2017-12-23T21:45:58.909Z,12.57
2017-12-23T21:48:25.867Z,13.65
2017-12-23T21:50:52.827Z,13.90
2017-12-23T21:53:19.984Z,13.98
2017-12-23T21:55:46.945Z,13.57
2017-12-23T21:58:13.792Z,13.70
2017-12-23T22:00:40.757Z,15.52
2017-12-23T22:03:07.707Z,15.48
2017-12-23T22:05:34.666Z,14.05
2017-12-23T22:08:01.726Z,16.85
2017-12-23T22:10:28.675Z,16.52
2017-12-23T22:12:55.640Z,14.63
2017-12-23T22:15:22.693Z,14.27
2017-12-23T22:17:49.573Z,15.63
2017-12-23T22:20:16.914Z,14.95
2017-12-23T22:22:43.874Z,14.90
2017-12-23T22:25:10.834Z,14.27
2017-12-23T22:27:37.677Z,15.73
2017-12-23T22:30:04.630Z,14.75
2017-12-23T22:32:31.602Z,15.30
2017-12-23T22:34:58.458Z,15.50
2017-12-23T22:37:25.407Z,14.23
2017-12-23T22:39:52.366Z,14.35
2017-12-23T22:42:31.508Z,14.50
2017-12-23T22:44:58.467Z,16.10
2017-12-23T22:47:25.413Z,16.73
2017-12-23T22:49:52.585Z,15.80
2017-12-23T22:52:19.547Z,15.85
2017-12-23T22:54:46.415Z,14.93
2017-12-23T22:57:13.964Z,15.30
2017-12-23T22:59:40.918Z,16.37
2017-12-23T23:02:08.083Z,15.20
2017-12-23T23:04:35.441Z,14.70
2017-12-23T23:07:03.124Z,12.68
2017-12-23T23:09:30.082Z,13.73
2017-12-23T23:11:57.034Z,15.07
2017-12-23T23:14:23.912Z,13.57
2017-12-23T23:16:51.154Z,14.87
2017-12-23T23:19:18.209Z,14.27
2017-12-23T23:21:45.167Z,12.93
2017-12-23T23:24:12.125Z,13.95
2017-12-23T23:26:38.734Z,13.75
2017-12-23T23:29:05.274Z,13.40
2017-12-23T23:31:31.925Z,13.95
2017-12-23T23:33:58.686Z,13.75
2017-12-23T23:36:25.355Z,13.50
2017-12-23T23:38:52.005Z,12.93
2017-12-23T23:41:18.654Z,15.73
2017-12-23T23:43:45.274Z,14.27
2017-12-23T23:46:11.823Z,13.65
2017-12-23T23:48:38.645Z,13.95
2017-12-23T23:51:05.551Z,13.18
2017-12-23T23:53:32.210Z,12.13
2017-12-23T23:55:58.854Z,13.18
2017-12-23T23:58:25.398Z,13.20
